sensor_id;sensor_type;location;lat;lon;timestamp;pressure;altitude;pressure_sealevel;temperature;humidity
18509;BME280;9383;50.928;12.116;2022-10-23T00:01:50;99031.72;;;9.34;100.00
18509;BME280;9383;50.928;12.116;2022-10-23T00:04:19;99029.09;;;9.32;100.00
18509;BME280;9383;50.928;12.116;2022-10-23T00:06:46;99030.06;;;9.29;100.00
18509;BME280;9383;50.928;12.116;2022-10-23T00:09:15;99026.56;;;9.27;100.00
18509;BME280;9383;50.928;12.116;2022-10-23T00:11:43;99033.66;;;9.27;100.00
18509;BME280;9383;50.928;12.116;2022-10-23T00:14:16;99028.41;;;9.25;100.00
18509;BME280;9383;50.928;12.116;2022-10-23T00:16:43;99025.84;;;9.22;100.00
18509;BME280;9383;50.928;12.116;2022-10-23T00:19:11;99025.94;;;9.19;100.00
18509;BME280;9383;50.928;12.116;2022-10-23T00:21:38;99024.22;;;9.18;100.00
18509;BME280;9383;50.928;12.116;2022-10-23T00:24:05;99025.16;;;9.15;100.00
18509;BME280;9383;50.928;12.116;2022-10-23T00:26:32;99024.34;;;9.13;100.00
18509;BME280;9383;50.928;12.116;2022-10-23T00:28:58;99026.09;;;9.13;100.00
18509;BME280;9383;50.928;12.116;2022-10-23T00:31:25;99027.06;;;9.10;100.00
18509;BME280;9383;50.928;12.116;2022-10-23T00:33:52;99024.50;;;9.07;100.00
18509;BME280;9383;50.928;12.116;2022-10-23T00:36:20;99028.97;;;9.05;100.00
18509;BME280;9383;50.928;12.116;2022-10-23T00:38:48;99029.88;;;9.04;100.00
18509;BME280;9383;50.928;12.116;2022-10-23T00:41:24;99027.31;;;9.01;100.00
18509;BME280;9383;50.928;12.116;2022-10-23T00:46:31;99024.78;;;8.98;100.00
18509;BME280;9383;50.928;12.116;2022-10-23T00:48:58;99032.72;;;8.96;100.00
18509;BME280;9383;50.928;12.116;2022-10-23T00:51:28;99032.75;;;8.95;100.00
18509;BME280;9383;50.928;12.116;2022-10-23T00:53:58;99033.66;;;8.94;100.00
18509;BME280;9383;50.928;12.116;2022-10-23T00:56:26;99031.13;;;8.91;100.00
18509;BME280;9383;50.928;12.116;2022-10-23T00:58:53;99037.31;;;8.90;100.00
18509;BME280;9383;50.928;12.116;2022-10-23T01:01:21;99037.34;;;8.88;100.00
18509;BME280;9383;50.928;12.116;2022-10-23T01:03:48;99041.78;;;8.88;100.00
18509;BME280;9383;50.928;12.116;2022-10-23T01:06:25;99039.16;;;8.86;100.00
18509;BME280;9383;50.928;12.116;2022-10-23T01:11:52;99021.59;;;8.83;100.00
18509;BME280;9383;50.928;12.116;2022-10-23T01:17:43;99034.06;;;8.80;100.00
18509;BME280;9383;50.928;12.116;2022-10-23T01:20:31;99027.03;;;8.79;100.00
18509;BME280;9383;50.928;12.116;2022-10-23T01:25:57;99019.13;;;8.77;100.00
18509;BME280;9383;50.928;12.116;2022-10-23T01:28:35;99017.41;;;8.76;100.00
18509;BME280;9383;50.928;12.116;2022-10-23T01:31:12;99011.22;;;8.77;100.00
18509;BME280;9383;50.928;12.116;2022-10-23T01:33:47;99004.13;;;8.78;100.00
18509;BME280;9383;50.928;12.116;2022-10-23T01:36:19;99004.97;;;8.80;100.00
18509;BME280;9383;50.928;12.116;2022-10-23T01:39:05;99013.75;;;8.80;100.00
18509;BME280;9383;50.928;12.116;2022-10-23T01:41:50;99015.50;;;8.81;100.00
18509;BME280;9383;50.928;12.116;2022-10-23T01:44:21;99012.84;;;8.81;100.00
18509;BME280;9383;50.928;12.116;2022-10-23T01:46:51;99010.28;;;8.80;100.00
18509;BME280;9383;50.928;12.116;2022-10-23T01:49:20;99012.03;;;8.79;100.00
18509;BME280;9383;50.928;12.116;2022-10-23T01:52:00;99011.19;;;8.79;100.00
18509;BME280;9383;50.928;12.116;2022-10-23T01:54:32;99010.28;;;8.78;100.00
18509;BME280;9383;50.928;12.116;2022-10-23T01:57:00;99005.00;;;8.78;100.00
18509;BME280;9383;50.928;12.116;2022-10-23T01:59:35;99009.41;;;8.78;100.00
18509;BME280;9383;50.928;12.116;2022-10-23T02:02:04;99011.22;;;8.77;100.00
18509;BME280;9383;50.928;12.116;2022-10-23T02:04:52;98998.00;;;8.77;100.00
18509;BME280;9383;50.928;12.116;2022-10-23T02:07:20;98991.00;;;8.75;100.00
18509;BME280;9383;50.928;12.116;2022-10-23T02:09:47;98998.09;;;8.74;100.00
18509;BME280;9383;50.928;12.116;2022-10-23T02:18:07;98999.88;;;8.72;100.00
18509;BME280;9383;50.928;12.116;2022-10-23T02:20:42;98993.72;;;8.71;100.00
18509;BME280;9383;50.928;12.116;2022-10-23T02:23:24;98988.47;;;8.70;100.00
18509;BME280;9383;50.928;12.116;2022-10-23T02:26:02;98991.13;;;8.70;100.00
18509;BME280;9383;50.928;12.116;2022-10-23T02:28:37;98982.28;;;8.71;100.00
18509;BME280;9383;50.928;12.116;2022-10-23T02:31:08;98983.16;;;8.71;100.00
18509;BME280;9383;50.928;12.116;2022-10-23T02:33:37;98984.00;;;8.72;100.00
18509;BME280;9383;50.928;12.116;2022-10-23T02:36:04;98971.69;;;8.72;100.00
18509;BME280;9383;50.928;12.116;2022-10-23T02:38:35;98971.66;;;8.74;100.00
18509;BME280;9383;50.928;12.116;2022-10-23T02:49:13;98898.81;;;8.29;100.00
18509;BME280;9383;50.928;12.116;2022-10-23T02:52:08;98961.22;;;8.68;100.00
18509;BME280;9383;50.928;12.116;2022-10-23T02:57:29;98960.41;;;8.66;100.00
18509;BME280;9383;50.928;12.116;2022-10-23T03:00:10;98962.13;;;8.67;100.00
18509;BME280;9383;50.928;12.116;2022-10-23T03:02:55;98956.84;;;8.67;100.00
18509;BME280;9383;50.928;12.116;2022-10-23T03:05:27;98959.53;;;8.65;100.00
18509;BME280;9383;50.928;12.116;2022-10-23T03:07:55;98957.84;;;8.63;100.00
18509;BME280;9383;50.928;12.116;2022-10-23T03:10:22;98962.31;;;8.61;100.00
18509;BME280;9383;50.928;12.116;2022-10-23T03:12:49;98958.81;;;8.58;100.00
18509;BME280;9383;50.928;12.116;2022-10-23T03:15:16;98970.38;;;8.56;100.00
18509;BME280;9383;50.928;12.116;2022-10-23T03:17:43;98972.19;;;8.54;100.00
18509;BME280;9383;50.928;12.116;2022-10-23T03:20:10;98973.97;;;8.52;100.00
18509;BME280;9383;50.928;12.116;2022-10-23T03:22:38;98978.47;;;8.48;100.00
18509;BME280;9383;50.928;12.116;2022-10-23T03:25:04;98969.69;;;8.46;100.00
18509;BME280;9383;50.928;12.116;2022-10-23T03:27:32;98968.03;;;8.42;100.00
18509;BME280;9383;50.928;12.116;2022-10-23T03:29:59;98954.84;;;8.40;100.00
18509;BME280;9383;50.928;12.116;2022-10-23T03:32:26;98951.44;;;8.37;100.00
18509;BME280;9383;50.928;12.116;2022-10-23T03:34:53;98951.47;;;8.35;100.00
18509;BME280;9383;50.928;12.116;2022-10-23T03:37:19;98956.84;;;8.32;100.00
18509;BME280;9383;50.928;12.116;2022-10-23T03:39:51;98956.88;;;8.30;100.00
18509;BME280;9383;50.928;12.116;2022-10-23T03:42:18;98958.72;;;8.27;100.00
18509;BME280;9383;50.928;12.116;2022-10-23T03:44:44;98961.44;;;8.24;100.00
18509;BME280;9383;50.928;12.116;2022-10-23T03:47:11;98963.28;;;8.20;100.00
18509;BME280;9383;50.928;12.116;2022-10-23T03:49:38;98960.69;;;8.19;100.00
18509;BME280;9383;50.928;12.116;2022-10-23T03:52:05;98967.81;;;8.15;100.00
18509;BME280;9383;50.928;12.116;2022-10-23T03:54:32;98965.28;;;8.12;100.00
18509;BME280;9383;50.928;12.116;2022-10-23T03:57:00;98977.66;;;8.08;100.00
18509;BME280;9383;50.928;12.116;2022-10-23T03:59:27;98980.34;;;8.07;100.00
18509;BME280;9383;50.928;12.116;2022-10-23T04:01:54;98969.84;;;8.03;100.00
18509;BME280;9383;50.928;12.116;2022-10-23T04:04:20;98963.75;;;8.01;100.00
18509;BME280;9383;50.928;12.116;2022-10-23T04:06:47;98964.75;;;7.97;100.00
18509;BME280;9383;50.928;12.116;2022-10-23T04:09:14;98960.41;;;7.95;100.00
18509;BME280;9383;50.928;12.116;2022-10-23T04:11:41;98964.78;;;7.94;100.00
18509;BME280;9383;50.928;12.116;2022-10-23T04:14:11;98964.88;;;7.91;100.00
18509;BME280;9383;50.928;12.116;2022-10-23T04:16:38;98965.78;;;7.90;100.00
18509;BME280;9383;50.928;12.116;2022-10-23T04:19:06;98961.41;;;7.89;100.00
18509;BME280;9383;50.928;12.116;2022-10-23T04:21:32;98960.59;;;7.85;100.00
18509;BME280;9383;50.928;12.116;2022-10-23T04:23:59;98968.59;;;7.84;100.00
18509;BME280;9383;50.928;12.116;2022-10-23T04:26:25;98969.44;;;7.83;100.00
18509;BME280;9383;50.928;12.116;2022-10-23T04:28:52;98966.94;;;7.78;100.00
18509;BME280;9383;50.928;12.116;2022-10-23T04:31:18;98967.00;;;7.75;100.00
18509;BME280;9383;50.928;12.116;2022-10-23T04:33:45;98965.25;;;7.74;100.00
18509;BME280;9383;50.928;12.116;2022-10-23T04:36:11;98967.91;;;7.74;100.00
18509;BME280;9383;50.928;12.116;2022-10-23T04:38:38;98960.06;;;7.71;100.00
18509;BME280;9383;50.928;12.116;2022-10-23T04:41:04;98957.44;;;7.69;100.00
18509;BME280;9383;50.928;12.116;2022-10-23T04:43:31;98946.94;;;7.68;100.00
18509;BME280;9383;50.928;12.116;2022-10-23T04:45:59;98952.25;;;7.66;100.00
18509;BME280;9383;50.928;12.116;2022-10-23T04:48:25;98956.69;;;7.64;100.00
18509;BME280;9383;50.928;12.116;2022-10-23T04:50:57;98955.81;;;7.64;100.00
18509;BME280;9383;50.928;12.116;2022-10-23T04:53:25;98955.88;;;7.62;100.00
18509;BME280;9383;50.928;12.116;2022-10-23T04:55:53;98961.16;;;7.62;100.00
18509;BME280;9383;50.928;12.116;2022-10-23T04:58:21;98960.31;;;7.60;100.00
18509;BME280;9383;50.928;12.116;2022-10-23T05:00:48;98959.44;;;7.59;100.00
18509;BME280;9383;50.928;12.116;2022-10-23T05:03:16;98948.03;;;7.59;100.00
18509;BME280;9383;50.928;12.116;2022-10-23T05:05:44;98950.69;;;7.59;100.00
18509;BME280;9383;50.928;12.116;2022-10-23T05:08:11;98950.69;;;7.59;100.00
18509;BME280;9383;50.928;12.116;2022-10-23T05:10:38;98948.88;;;7.59;100.00
18509;BME280;9383;50.928;12.116;2022-10-23T05:13:05;98947.13;;;7.60;100.00
18509;BME280;9383;50.928;12.116;2022-10-23T05:15:31;98947.97;;;7.62;100.00
18509;BME280;9383;50.928;12.116;2022-10-23T05:18:11;98952.22;;;7.68;100.00
18509;BME280;9383;50.928;12.116;2022-10-23T05:20:39;98943.31;;;7.73;100.00
18509;BME280;9383;50.928;12.116;2022-10-23T05:23:08;98943.19;;;7.78;100.00
18509;BME280;9383;50.928;12.116;2022-10-23T05:25:36;98944.84;;;7.82;100.00
18509;BME280;9383;50.928;12.116;2022-10-23T05:28:03;98940.41;;;7.83;100.00
18509;BME280;9383;50.928;12.116;2022-10-23T05:30:31;98934.22;;;7.85;100.00
18509;BME280;9383;50.928;12.116;2022-10-23T05:32:59;98929.72;;;7.89;100.00
18509;BME280;9383;50.928;12.116;2022-10-23T05:35:26;98933.22;;;7.89;100.00
18509;BME280;9383;50.928;12.116;2022-10-23T05:37:55;98926.09;;;7.95;100.00
18509;BME280;9383;50.928;12.116;2022-10-23T05:40:23;98930.44;;;7.97;100.00
18509;BME280;9383;50.928;12.116;2022-10-23T05:42:49;98925.06;;;8.00;100.00
18509;BME280;9383;50.928;12.116;2022-10-23T05:45:16;98925.91;;;8.01;100.00
18509;BME280;9383;50.928;12.116;2022-10-23T05:47:44;98922.38;;;8.02;100.00
18509;BME280;9383;50.928;12.116;2022-10-23T05:50:11;98925.88;;;8.02;100.00
18509;BME280;9383;50.928;12.116;2022-10-23T05:52:37;98924.13;;;8.03;100.00
18509;BME280;9383;50.928;12.116;2022-10-23T05:55:04;98932.94;;;8.02;100.00
18509;BME280;9383;50.928;12.116;2022-10-23T05:57:34;98932.94;;;8.02;100.00
18509;BME280;9383;50.928;12.116;2022-10-23T06:00:00;98931.16;;;8.02;100.00
18509;BME280;9383;50.928;12.116;2022-10-23T06:02:27;98927.66;;;8.02;100.00
18509;BME280;9383;50.928;12.116;2022-10-23T06:04:54;98936.44;;;8.02;100.00
18509;BME280;9383;50.928;12.116;2022-10-23T06:07:28;98938.19;;;8.03;100.00
18509;BME280;9383;50.928;12.116;2022-10-23T06:09:55;98944.25;;;8.07;100.00
18509;BME280;9383;50.928;12.116;2022-10-23T06:12:22;98947.50;;;8.19;100.00
18509;BME280;9383;50.928;12.116;2022-10-23T06:14:48;98941.81;;;8.34;100.00
18509;BME280;9383;50.928;12.116;2022-10-23T06:17:15;98947.66;;;8.47;100.00
18509;BME280;9383;50.928;12.116;2022-10-23T06:19:43;98938.59;;;8.57;100.00
18509;BME280;9383;50.928;12.116;2022-10-23T06:22:11;98943.53;;;8.70;100.00
18509;BME280;9383;50.928;12.116;2022-10-23T06:24:37;98950.31;;;8.80;100.00
18509;BME280;9383;50.928;12.116;2022-10-23T06:27:04;98950.06;;;8.90;100.00
18509;BME280;9383;50.928;12.116;2022-10-23T06:29:30;98936.63;;;8.97;100.00
18509;BME280;9383;50.928;12.116;2022-10-23T06:31:57;98931.94;;;9.07;100.00
18509;BME280;9383;50.928;12.116;2022-10-23T06:34:23;98936.06;;;9.18;100.00
18509;BME280;9383;50.928;12.116;2022-10-23T06:36:50;98942.72;;;9.31;100.00
18509;BME280;9383;50.928;12.116;2022-10-23T06:39:16;98940.44;;;9.49;100.00
18509;BME280;9383;50.928;12.116;2022-10-23T06:41:43;98942.50;;;9.67;100.00
18509;BME280;9383;50.928;12.116;2022-10-23T06:44:10;98942.78;;;9.87;100.00
18509;BME280;9383;50.928;12.116;2022-10-23T06:46:37;98934.34;;;10.02;100.00
18509;BME280;9383;50.928;12.116;2022-10-23T06:49:03;98932.97;;;10.17;100.00
18509;BME280;9383;50.928;12.116;2022-10-23T06:51:30;98919.31;;;10.30;100.00
18509;BME280;9383;50.928;12.116;2022-10-23T06:53:57;98922.50;;;10.41;100.00
18509;BME280;9383;50.928;12.116;2022-10-23T06:56:23;98924.75;;;10.52;100.00
18509;BME280;9383;50.928;12.116;2022-10-23T06:58:54;98925.31;;;10.62;100.00
18509;BME280;9383;50.928;12.116;2022-10-23T07:01:21;98929.44;;;10.71;100.00
18509;BME280;9383;50.928;12.116;2022-10-23T07:03:48;98935.28;;;10.79;100.00
18509;BME280;9383;50.928;12.116;2022-10-23T07:06:15;98931.47;;;10.88;100.00
18509;BME280;9383;50.928;12.116;2022-10-23T07:08:41;98936.50;;;10.95;100.00
18509;BME280;9383;50.928;12.116;2022-10-23T07:11:10;98934.47;;;11.02;100.00
18509;BME280;9383;50.928;12.116;2022-10-23T07:13:38;98940.47;;;11.07;100.00
18509;BME280;9383;50.928;12.116;2022-10-23T07:16:13;98950.88;;;11.14;100.00
18509;BME280;9383;50.928;12.116;2022-10-23T07:18:40;98944.63;;;11.15;100.00
18509;BME280;9383;50.928;12.116;2022-10-23T07:21:08;98943.59;;;11.19;100.00
18509;BME280;9383;50.928;12.116;2022-10-23T07:23:39;98956.69;;;11.23;100.00
18509;BME280;9383;50.928;12.116;2022-10-23T07:26:12;98949.41;;;11.29;100.00
18509;BME280;9383;50.928;12.116;2022-10-23T07:28:43;98957.28;;;11.32;100.00
18509;BME280;9383;50.928;12.116;2022-10-23T07:31:11;98960.66;;;11.35;100.00
18509;BME280;9383;50.928;12.116;2022-10-23T07:33:37;98959.63;;;11.39;100.00
18509;BME280;9383;50.928;12.116;2022-10-23T07:36:08;98952.47;;;11.42;100.00
18509;BME280;9383;50.928;12.116;2022-10-23T07:38:35;98946.88;;;11.49;100.00
18509;BME280;9383;50.928;12.116;2022-10-23T07:41:01;98945.75;;;11.55;100.00
18509;BME280;9383;50.928;12.116;2022-10-23T07:43:28;98939.28;;;11.62;100.00
18509;BME280;9383;50.928;12.116;2022-10-23T07:45:55;98923.97;;;11.69;100.00
18509;BME280;9383;50.928;12.116;2022-10-23T07:48:23;98928.06;;;11.78;100.00
18509;BME280;9383;50.928;12.116;2022-10-23T07:50:50;98919.69;;;11.87;100.00
18509;BME280;9383;50.928;12.116;2022-10-23T07:53:19;98929.09;;;11.96;100.00
18509;BME280;9383;50.928;12.116;2022-10-23T07:55:54;98925.16;;;12.06;100.00
18509;BME280;9383;50.928;12.116;2022-10-23T07:58:22;98928.22;;;12.18;100.00
18509;BME280;9383;50.928;12.116;2022-10-23T08:00:58;98932.09;;;12.31;100.00
18509;BME280;9383;50.928;12.116;2022-10-23T08:03:26;98931.72;;;12.41;100.00
18509;BME280;9383;50.928;12.116;2022-10-23T08:05:54;98927.78;;;12.49;100.00
18509;BME280;9383;50.928;12.116;2022-10-23T08:08:22;98922.13;;;12.57;100.00
18509;BME280;9383;50.928;12.116;2022-10-23T08:10:50;98920.81;;;12.68;100.00
18509;BME280;9383;50.928;12.116;2022-10-23T08:13:17;98912.47;;;12.75;100.00
18509;BME280;9383;50.928;12.116;2022-10-23T08:15:47;98920.16;;;12.83;100.00
18509;BME280;9383;50.928;12.116;2022-10-23T08:18:14;98924.25;;;12.90;100.00
18509;BME280;9383;50.928;12.116;2022-10-23T08:20:44;98921.38;;;12.95;100.00
18509;BME280;9383;50.928;12.116;2022-10-23T08:23:11;98931.66;;;13.03;100.00
18509;BME280;9383;50.928;12.116;2022-10-23T08:25:39;98931.47;;;13.07;100.00
18509;BME280;9383;50.928;12.116;2022-10-23T08:28:07;98915.28;;;13.12;100.00
18509;BME280;9383;50.928;12.116;2022-10-23T08:30:35;98910.59;;;13.17;100.00
18509;BME280;9383;50.928;12.116;2022-10-23T08:33:03;98910.34;;;13.23;100.00
18509;BME280;9383;50.928;12.116;2022-10-23T08:35:33;98910.91;;;13.30;100.00
18509;BME280;9383;50.928;12.116;2022-10-23T08:38:00;98898.09;;;13.39;100.00
18509;BME280;9383;50.928;12.116;2022-10-23T08:40:26;98913.81;;;13.45;100.00
18509;BME280;9383;50.928;12.116;2022-10-23T08:45:42;98910.13;;;13.67;100.00
18509;BME280;9383;50.928;12.116;2022-10-23T08:48:32;98925.03;;;13.71;100.00
18509;BME280;9383;50.928;12.116;2022-10-23T08:51:20;98916.59;;;13.80;100.00
18509;BME280;9383;50.928;12.116;2022-10-23T08:54:05;98916.28;;;13.86;100.00
18509;BME280;9383;50.928;12.116;2022-10-23T08:56:36;98924.13;;;13.89;100.00
18509;BME280;9383;50.928;12.116;2022-10-23T08:59:21;98911.50;;;13.93;100.00
18509;BME280;9383;50.928;12.116;2022-10-23T09:02:02;98919.50;;;13.93;100.00
18509;BME280;9383;50.928;12.116;2022-10-23T09:04:31;98921.41;;;13.91;100.00
18509;BME280;9383;50.928;12.116;2022-10-23T09:12:48;98909.34;;;14.01;100.00
18509;BME280;9383;50.928;12.116;2022-10-23T09:17:59;98898.28;;;14.09;100.00
18509;BME280;9383;50.928;12.116;2022-10-23T09:20:38;98895.31;;;14.15;100.00
18509;BME280;9383;50.928;12.116;2022-10-23T09:23:17;98891.41;;;14.23;100.00
18509;BME280;9383;50.928;12.116;2022-10-23T09:25:46;98893.91;;;14.26;100.00
18509;BME280;9383;50.928;12.116;2022-10-23T09:28:25;98898.06;;;14.31;100.00
18509;BME280;9383;50.928;12.116;2022-10-23T09:30:52;98887.94;;;14.38;100.00
18509;BME280;9383;50.928;12.116;2022-10-23T09:33:25;98882.31;;;14.44;100.00
18509;BME280;9383;50.928;12.116;2022-10-23T09:35:58;98884.72;;;14.49;100.00
18509;BME280;9383;50.928;12.116;2022-10-23T09:38:44;98884.41;;;14.55;100.00
18509;BME280;9383;50.928;12.116;2022-10-23T09:41:29;98881.50;;;14.60;100.00
18509;BME280;9383;50.928;12.116;2022-10-23T09:49:02;98872.38;;;14.82;100.00
18509;BME280;9383;50.928;12.116;2022-10-23T09:51:30;98869.19;;;14.91;100.00
18509;BME280;9383;50.928;12.116;2022-10-23T09:53:58;98868.63;;;15.02;100.00
18509;BME280;9383;50.928;12.116;2022-10-23T09:56:29;98870.63;;;15.14;100.00
18509;BME280;9383;50.928;12.116;2022-10-23T10:01:50;98864.44;;;15.46;100.00
18509;BME280;9383;50.928;12.116;2022-10-23T10:04:18;98867.19;;;15.60;100.00
18509;BME280;9383;50.928;12.116;2022-10-23T10:06:44;98857.31;;;15.77;100.00
18509;BME280;9383;50.928;12.116;2022-10-23T10:09:15;98857.25;;;15.95;100.00
18509;BME280;9383;50.928;12.116;2022-10-23T10:12:16;98849.97;;;16.13;100.00
18509;BME280;9383;50.928;12.116;2022-10-23T10:14:57;98843.56;;;16.30;97.90
18509;BME280;9383;50.928;12.116;2022-10-23T10:17:56;98841.78;;;16.45;95.80
18509;BME280;9383;50.928;12.116;2022-10-23T10:20:41;98851.88;;;16.56;92.34
18509;BME280;9383;50.928;12.116;2022-10-23T10:23:33;98853.94;;;16.65;92.12
18509;BME280;9383;50.928;12.116;2022-10-23T10:29:23;98840.47;;;16.81;90.72
18509;BME280;9383;50.928;12.116;2022-10-23T10:32:34;98831.22;;;16.87;89.61
18509;BME280;9383;50.928;12.116;2022-10-23T10:35:16;98824.69;;;16.91;86.94
18509;BME280;9383;50.928;12.116;2022-10-23T10:40:59;98820.59;;;17.00;87.39
18509;BME280;9383;50.928;12.116;2022-10-23T10:43:45;98822.97;;;17.05;87.54
18509;BME280;9383;50.928;12.116;2022-10-23T10:46:25;98817.47;;;17.08;87.78
18509;BME280;9383;50.928;12.116;2022-10-23T10:49:50;98819.06;;;17.10;87.17
18509;BME280;9383;50.928;12.116;2022-10-23T10:59:56;98798.75;;;17.21;89.24
18509;BME280;9383;50.928;12.116;2022-10-23T11:02:59;98797.59;;;17.25;88.57
18509;BME280;9383;50.928;12.116;2022-10-23T11:05:41;98795.56;;;17.28;87.93
18509;BME280;9383;50.928;12.116;2022-10-23T11:08:36;98792.81;;;17.30;87.70
18509;BME280;9383;50.928;12.116;2022-10-23T11:11:39;98780.09;;;17.34;87.96
18509;BME280;9383;50.928;12.116;2022-10-23T11:14:24;98785.13;;;17.38;88.32
18509;BME280;9383;50.928;12.116;2022-10-23T11:19:33;98774.97;;;17.43;82.97
18509;BME280;9383;50.928;12.116;2022-10-23T11:36:15;98747.34;;;17.56;79.11
18509;BME280;9383;50.928;12.116;2022-10-23T11:38:45;98735.66;;;17.57;79.62
18509;BME280;9383;50.928;12.116;2022-10-23T11:41:23;98727.41;;;17.60;79.64
18509;BME280;9383;50.928;12.116;2022-10-23T11:43:59;98737.28;;;17.60;79.35
18509;BME280;9383;50.928;12.116;2022-10-23T11:46:33;98728.59;;;17.56;77.43
18509;BME280;9383;50.928;12.116;2022-10-23T11:49:17;98725.03;;;17.55;78.18
18509;BME280;9383;50.928;12.116;2022-10-23T11:51:45;98733.84;;;17.57;78.75
18509;BME280;9383;50.928;12.116;2022-10-23T12:04:53;98719.50;;;17.71;79.30
18509;BME280;9383;50.928;12.116;2022-10-23T12:07:29;98715.00;;;17.72;79.88
18509;BME280;9383;50.928;12.116;2022-10-23T12:10:01;98714.03;;;17.73;79.43
18509;BME280;9383;50.928;12.116;2022-10-23T12:12:34;98713.81;;;17.76;79.12
18509;BME280;9383;50.928;12.116;2022-10-23T12:15:19;98697.53;;;17.79;80.29
18509;BME280;9383;50.928;12.116;2022-10-23T12:17:48;98695.19;;;17.88;81.05
18509;BME280;9383;50.928;12.116;2022-10-23T12:20:23;98698.69;;;17.88;79.74
18509;BME280;9383;50.928;12.116;2022-10-23T12:28:56;98671.16;;;17.99;80.54
18509;BME280;9383;50.928;12.116;2022-10-23T12:31:44;98664.53;;;18.05;81.00
18509;BME280;9383;50.928;12.116;2022-10-23T12:34:37;98664.53;;;18.05;78.76
18509;BME280;9383;50.928;12.116;2022-10-23T12:37:34;98658.94;;;18.08;78.75
18509;BME280;9383;50.928;12.116;2022-10-23T12:40:09;98662.38;;;18.10;80.10
18509;BME280;9383;50.928;12.116;2022-10-23T12:42:36;98669.34;;;18.12;79.67
18509;BME280;9383;50.928;12.116;2022-10-23T12:45:18;98662.16;;;18.13;79.22
18509;BME280;9383;50.928;12.116;2022-10-23T12:47:47;98663.13;;;18.12;79.61
18509;BME280;9383;50.928;12.116;2022-10-23T12:50:24;98658.63;;;18.12;78.24
18509;BME280;9383;50.928;12.116;2022-10-23T12:53:04;98656.91;;;18.11;78.37
18509;BME280;9383;50.928;12.116;2022-10-23T12:58:23;98650.66;;;18.11;78.94
18509;BME280;9383;50.928;12.116;2022-10-23T13:00:56;98646.19;;;18.11;78.33
18509;BME280;9383;50.928;12.116;2022-10-23T13:03:24;98646.19;;;18.11;78.33
18509;BME280;9383;50.928;12.116;2022-10-23T13:06:02;98640.81;;;18.11;78.19
18509;BME280;9383;50.928;12.116;2022-10-23T13:08:41;98630.81;;;18.13;78.32
18509;BME280;9383;50.928;12.116;2022-10-23T13:11:15;98625.13;;;18.18;79.00
18509;BME280;9383;50.928;12.116;2022-10-23T13:13:43;98616.03;;;18.21;78.12
18509;BME280;9383;50.928;12.116;2022-10-23T13:16:14;98606.78;;;18.25;78.33
18509;BME280;9383;50.928;12.116;2022-10-23T13:18:41;98607.28;;;18.30;79.13
18509;BME280;9383;50.928;12.116;2022-10-23T13:21:15;98595.25;;;18.36;79.87
18509;BME280;9383;50.928;12.116;2022-10-23T13:23:42;98595.66;;;18.42;80.63
18509;BME280;9383;50.928;12.116;2022-10-23T13:28:50;98601.09;;;18.54;81.12
18509;BME280;9383;50.928;12.116;2022-10-23T13:36:33;98588.53;;;18.54;77.96
18509;BME280;9383;50.928;12.116;2022-10-23T13:41:38;98580.34;;;18.56;76.62
18509;BME280;9383;50.928;12.116;2022-10-23T13:44:15;98583.03;;;18.56;77.57
18509;BME280;9383;50.928;12.116;2022-10-23T13:46:42;98585.63;;;18.58;77.21
18509;BME280;9383;50.928;12.116;2022-10-23T13:49:10;98583.81;;;18.58;77.84
18509;BME280;9383;50.928;12.116;2022-10-23T13:51:43;98586.69;;;18.55;77.26
18509;BME280;9383;50.928;12.116;2022-10-23T13:54:22;98594.13;;;18.51;76.51
18509;BME280;9383;50.928;12.116;2022-10-23T13:56:49;98586.94;;;18.52;77.09
18509;BME280;9383;50.928;12.116;2022-10-23T13:59:16;98585.13;;;18.52;77.19
18509;BME280;9383;50.928;12.116;2022-10-23T14:01:44;98577.28;;;18.49;75.98
18509;BME280;9383;50.928;12.116;2022-10-23T14:04:11;98580.94;;;18.48;76.71
18509;BME280;9383;50.928;12.116;2022-10-23T14:06:38;98577.50;;;18.46;76.63
18509;BME280;9383;50.928;12.116;2022-10-23T14:09:11;98572.25;;;18.45;76.50
18509;BME280;9383;50.928;12.116;2022-10-23T14:11:38;98574.19;;;18.42;76.66
18509;BME280;9383;50.928;12.116;2022-10-23T14:14:05;98566.13;;;18.42;77.14
18509;BME280;9383;50.928;12.116;2022-10-23T14:16:31;98557.25;;;18.42;77.66
18509;BME280;9383;50.928;12.116;2022-10-23T14:18:58;98562.59;;;18.42;77.79
18509;BME280;9383;50.928;12.116;2022-10-23T14:21:25;98553.81;;;18.40;78.10
18509;BME280;9383;50.928;12.116;2022-10-23T14:23:52;98549.53;;;18.37;77.68
18509;BME280;9383;50.928;12.116;2022-10-23T14:26:23;98553.19;;;18.36;77.88
18509;BME280;9383;50.928;12.116;2022-10-23T14:28:54;98547.06;;;18.34;77.92
18509;BME280;9383;50.928;12.116;2022-10-23T14:31:21;98560.59;;;18.33;77.72
18509;BME280;9383;50.928;12.116;2022-10-23T14:33:53;98551.66;;;18.32;78.05
18509;BME280;9383;50.928;12.116;2022-10-23T14:36:22;98557.03;;;18.32;78.12
18509;BME280;9383;50.928;12.116;2022-10-23T14:38:48;98541.91;;;18.31;78.31
18509;BME280;9383;50.928;12.116;2022-10-23T14:41:16;98542.88;;;18.30;78.46
18509;BME280;9383;50.928;12.116;2022-10-23T14:43:44;98544.72;;;18.30;78.67
18509;BME280;9383;50.928;12.116;2022-10-23T14:46:15;98553.94;;;18.25;77.72
18509;BME280;9383;50.928;12.116;2022-10-23T14:48:42;98544.53;;;18.20;76.20
18509;BME280;9383;50.928;12.116;2022-10-23T14:51:21;98537.81;;;18.14;75.82
18509;BME280;9383;50.928;12.116;2022-10-23T14:53:48;98537.16;;;18.10;75.82
18509;BME280;9383;50.928;12.116;2022-10-23T14:56:19;98544.88;;;18.02;75.11
18509;BME280;9383;50.928;12.116;2022-10-23T14:58:45;98553.25;;;17.97;74.77
18509;BME280;9383;50.928;12.116;2022-10-23T15:01:12;98555.75;;;17.88;73.85
18509;BME280;9383;50.928;12.116;2022-10-23T15:03:38;98549.00;;;17.82;73.50
18509;BME280;9383;50.928;12.116;2022-10-23T15:06:06;98549.53;;;17.74;73.11
18509;BME280;9383;50.928;12.116;2022-10-23T15:08:33;98546.22;;;17.70;73.14